sensor_id;sensor_type;location;lat;lon;timestamp;P1;durP1;ratioP1;P2;durP2;ratioP2
2161;SDS011;1087;50.226;8.682;2023-05-07T00:02:21;3.80;;;2.97;;
2161;SDS011;1087;50.226;8.682;2023-05-07T00:04:47;2.90;;;2.60;;
2161;SDS011;1087;50.226;8.682;2023-05-07T00:07:13;3.07;;;2.87;;
2161;SDS011;1087;50.226;8.682;2023-05-07T00:09:39;2.60;;;2.33;;
2161;SDS011;1087;50.226;8.682;2023-05-07T00:12:05;4.50;;;3.10;;
2161;SDS011;1087;50.226;8.682;2023-05-07T00:14:30;3.80;;;2.83;;
2161;SDS011;1087;50.226;8.682;2023-05-07T00:16:56;2.60;;;2.40;;
2161;SDS011;1087;50.226;8.682;2023-05-07T00:19:22;3.40;;;3.00;;
2161;SDS011;1087;50.226;8.682;2023-05-07T00:21:47;4.30;;;3.00;;
2161;SDS011;1087;50.226;8.682;2023-05-07T00:24:13;2.33;;;2.10;;
2161;SDS011;1087;50.226;8.682;2023-05-07T00:26:38;4.07;;;2.53;;
2161;SDS011;1087;50.226;8.682;2023-05-07T00:29:04;4.13;;;3.10;;
2161;SDS011;1087;50.226;8.682;2023-05-07T00:31:29;3.20;;;2.70;;
2161;SDS011;1087;50.226;8.682;2023-05-07T00:33:55;3.00;;;2.60;;
2161;SDS011;1087;50.226;8.682;2023-05-07T00:36:20;2.83;;;2.53;;
2161;SDS011;1087;50.226;8.682;2023-05-07T00:38:46;2.93;;;2.60;;
2161;SDS011;1087;50.226;8.682;2023-05-07T00:41:11;4.80;;;2.67;;
2161;SDS011;1087;50.226;8.682;2023-05-07T00:43:37;2.53;;;2.30;;
2161;SDS011;1087;50.226;8.682;2023-05-07T00:46:03;2.73;;;2.30;;
2161;SDS011;1087;50.226;8.682;2023-05-07T00:48:28;2.90;;;2.60;;
2161;SDS011;1087;50.226;8.682;2023-05-07T00:50:55;2.63;;;2.43;;
2161;SDS011;1087;50.226;8.682;2023-05-07T00:53:21;2.53;;;2.33;;
2161;SDS011;1087;50.226;8.682;2023-05-07T00:55:47;4.23;;;3.00;;
2161;SDS011;1087;50.226;8.682;2023-05-07T00:58:13;4.73;;;3.23;;
2161;SDS011;1087;50.226;8.682;2023-05-07T01:00:38;3.63;;;2.93;;
2161;SDS011;1087;50.226;8.682;2023-05-07T01:03:04;3.50;;;2.37;;
2161;SDS011;1087;50.226;8.682;2023-05-07T01:05:30;3.00;;;2.80;;
2161;SDS011;1087;50.226;8.682;2023-05-07T01:07:56;3.00;;;2.73;;
2161;SDS011;1087;50.226;8.682;2023-05-07T01:10:22;2.57;;;2.07;;
2161;SDS011;1087;50.226;8.682;2023-05-07T01:12:49;3.23;;;3.03;;
2161;SDS011;1087;50.226;8.682;2023-05-07T01:15:15;4.13;;;2.60;;
2161;SDS011;1087;50.226;8.682;2023-05-07T01:17:42;4.00;;;2.40;;
2161;SDS011;1087;50.226;8.682;2023-05-07T01:20:08;2.30;;;2.10;;
2161;SDS011;1087;50.226;8.682;2023-05-07T01:22:37;3.10;;;2.60;;
2161;SDS011;1087;50.226;8.682;2023-05-07T01:25:06;3.40;;;3.10;;
2161;SDS011;1087;50.226;8.682;2023-05-07T01:27:33;2.80;;;2.60;;
2161;SDS011;1087;50.226;8.682;2023-05-07T01:30:00;3.13;;;2.67;;
2161;SDS011;1087;50.226;8.682;2023-05-07T01:32:31;3.03;;;2.80;;
2161;SDS011;1087;50.226;8.682;2023-05-07T01:35:07;2.97;;;2.70;;
2161;SDS011;1087;50.226;8.682;2023-05-07T01:37:36;3.20;;;2.90;;
2161;SDS011;1087;50.226;8.682;2023-05-07T01:40:03;3.30;;;3.07;;
2161;SDS011;1087;50.226;8.682;2023-05-07T01:42:29;3.87;;;2.83;;
2161;SDS011;1087;50.226;8.682;2023-05-07T01:44:56;3.23;;;2.93;;
2161;SDS011;1087;50.226;8.682;2023-05-07T01:47:21;2.83;;;2.57;;
2161;SDS011;1087;50.226;8.682;2023-05-07T01:49:48;4.63;;;2.80;;
2161;SDS011;1087;50.226;8.682;2023-05-07T01:52:14;2.90;;;2.67;;
2161;SDS011;1087;50.226;8.682;2023-05-07T01:54:40;2.50;;;2.30;;
2161;SDS011;1087;50.226;8.682;2023-05-07T01:57:06;3.10;;;2.83;;
2161;SDS011;1087;50.226;8.682;2023-05-07T01:59:32;2.53;;;2.20;;
2161;SDS011;1087;50.226;8.682;2023-05-07T02:01:57;3.40;;;3.13;;
2161;SDS011;1087;50.226;8.682;2023-05-07T02:04:23;3.30;;;3.00;;
2161;SDS011;1087;50.226;8.682;2023-05-07T02:06:49;3.03;;;2.70;;
2161;SDS011;1087;50.226;8.682;2023-05-07T02:09:15;3.17;;;2.87;;
2161;SDS011;1087;50.226;8.682;2023-05-07T02:11:40;3.00;;;2.80;;
2161;SDS011;1087;50.226;8.682;2023-05-07T02:14:06;3.30;;;2.57;;
2161;SDS011;1087;50.226;8.682;2023-05-07T02:16:31;3.63;;;2.47;;
2161;SDS011;1087;50.226;8.682;2023-05-07T02:18:57;3.10;;;2.90;;
2161;SDS011;1087;50.226;8.682;2023-05-07T02:21:23;2.93;;;2.63;;
2161;SDS011;1087;50.226;8.682;2023-05-07T02:23:50;3.10;;;2.83;;
2161;SDS011;1087;50.226;8.682;2023-05-07T02:26:15;3.07;;;2.77;;
2161;SDS011;1087;50.226;8.682;2023-05-07T02:28:41;3.00;;;2.80;;
2161;SDS011;1087;50.226;8.682;2023-05-07T02:31:06;3.00;;;2.70;;
2161;SDS011;1087;50.226;8.682;2023-05-07T02:33:32;3.50;;;2.77;;
2161;SDS011;1087;50.226;8.682;2023-05-07T02:36:04;3.17;;;2.87;;
2161;SDS011;1087;50.226;8.682;2023-05-07T02:38:34;3.13;;;2.83;;
2161;SDS011;1087;50.226;8.682;2023-05-07T02:40:59;3.90;;;3.00;;
2161;SDS011;1087;50.226;8.682;2023-05-07T02:43:25;3.33;;;3.03;;
2161;SDS011;1087;50.226;8.682;2023-05-07T02:45:59;6.77;;;2.80;;
2161;SDS011;1087;50.226;8.682;2023-05-07T02:48:29;4.47;;;2.70;;
2161;SDS011;1087;50.226;8.682;2023-05-07T02:50:54;3.23;;;2.93;;
2161;SDS011;1087;50.226;8.682;2023-05-07T02:53:20;3.63;;;3.33;;
2161;SDS011;1087;50.226;8.682;2023-05-07T02:55:45;3.40;;;3.13;;
2161;SDS011;1087;50.226;8.682;2023-05-07T02:58:11;3.17;;;2.77;;
2161;SDS011;1087;50.226;8.682;2023-05-07T03:00:37;4.53;;;3.20;;
2161;SDS011;1087;50.226;8.682;2023-05-07T03:03:02;3.07;;;2.67;;
2161;SDS011;1087;50.226;8.682;2023-05-07T03:05:28;4.20;;;3.90;;
2161;SDS011;1087;50.226;8.682;2023-05-07T03:07:53;3.73;;;2.60;;
2161;SDS011;1087;50.226;8.682;2023-05-07T03:10:19;6.00;;;2.80;;
2161;SDS011;1087;50.226;8.682;2023-05-07T03:12:44;3.73;;;3.27;;
2161;SDS011;1087;50.226;8.682;2023-05-07T03:15:10;3.40;;;3.10;;
2161;SDS011;1087;50.226;8.682;2023-05-07T03:17:37;3.40;;;3.07;;
2161;SDS011;1087;50.226;8.682;2023-05-07T03:20:03;3.90;;;2.77;;
2161;SDS011;1087;50.226;8.682;2023-05-07T03:22:29;2.80;;;2.60;;
2161;SDS011;1087;50.226;8.682;2023-05-07T03:24:55;3.27;;;2.70;;
2161;SDS011;1087;50.226;8.682;2023-05-07T03:27:20;3.00;;;2.70;;
2161;SDS011;1087;50.226;8.682;2023-05-07T03:29:46;3.10;;;2.80;;
2161;SDS011;1087;50.226;8.682;2023-05-07T03:32:11;4.33;;;2.80;;
2161;SDS011;1087;50.226;8.682;2023-05-07T03:34:37;3.90;;;2.83;;
2161;SDS011;1087;50.226;8.682;2023-05-07T03:37:02;2.50;;;2.20;;
2161;SDS011;1087;50.226;8.682;2023-05-07T03:39:28;3.30;;;3.00;;
2161;SDS011;1087;50.226;8.682;2023-05-07T03:41:53;3.80;;;3.10;;
2161;SDS011;1087;50.226;8.682;2023-05-07T03:44:19;3.20;;;2.90;;
2161;SDS011;1087;50.226;8.682;2023-05-07T03:46:44;2.97;;;2.77;;
2161;SDS011;1087;50.226;8.682;2023-05-07T03:49:10;2.80;;;2.60;;
2161;SDS011;1087;50.226;8.682;2023-05-07T03:51:36;2.97;;;2.77;;
2161;SDS011;1087;50.226;8.682;2023-05-07T03:54:01;2.97;;;2.77;;
2161;SDS011;1087;50.226;8.682;2023-05-07T03:56:27;3.40;;;2.67;;
2161;SDS011;1087;50.226;8.682;2023-05-07T03:58:53;3.03;;;2.80;;
2161;SDS011;1087;50.226;8.682;2023-05-07T04:01:19;3.23;;;2.93;;
2161;SDS011;1087;50.226;8.682;2023-05-07T04:03:44;2.87;;;2.67;;
2161;SDS011;1087;50.226;8.682;2023-05-07T04:06:10;2.90;;;2.70;;
2161;SDS011;1087;50.226;8.682;2023-05-07T04:08:35;4.00;;;3.07;;
2161;SDS011;1087;50.226;8.682;2023-05-07T04:11:01;2.90;;;2.70;;
2161;SDS011;1087;50.226;8.682;2023-05-07T04:13:27;4.40;;;2.70;;
2161;SDS011;1087;50.226;8.682;2023-05-07T04:15:53;3.13;;;2.83;;
2161;SDS011;1087;50.226;8.682;2023-05-07T04:18:20;3.00;;;2.63;;
2161;SDS011;1087;50.226;8.682;2023-05-07T04:20:46;3.13;;;2.83;;
2161;SDS011;1087;50.226;8.682;2023-05-07T04:23:15;3.87;;;3.43;;
2161;SDS011;1087;50.226;8.682;2023-05-07T04:25:40;3.40;;;3.20;;
2161;SDS011;1087;50.226;8.682;2023-05-07T04:28:06;4.33;;;3.93;;
2161;SDS011;1087;50.226;8.682;2023-05-07T04:30:32;4.00;;;3.60;;
2161;SDS011;1087;50.226;8.682;2023-05-07T04:32:57;3.97;;;3.57;;
2161;SDS011;1087;50.226;8.682;2023-05-07T04:35:23;3.83;;;3.53;;
2161;SDS011;1087;50.226;8.682;2023-05-07T04:37:48;3.53;;;3.23;;
2161;SDS011;1087;50.226;8.682;2023-05-07T04:40:14;3.80;;;3.40;;
2161;SDS011;1087;50.226;8.682;2023-05-07T04:42:39;3.70;;;3.30;;
2161;SDS011;1087;50.226;8.682;2023-05-07T04:45:05;3.60;;;3.40;;
2161;SDS011;1087;50.226;8.682;2023-05-07T04:47:31;4.00;;;3.60;;
2161;SDS011;1087;50.226;8.682;2023-05-07T04:49:57;4.40;;;4.03;;
2161;SDS011;1087;50.226;8.682;2023-05-07T04:52:23;3.60;;;3.30;;
2161;SDS011;1087;50.226;8.682;2023-05-07T04:54:48;4.70;;;4.13;;
2161;SDS011;1087;50.226;8.682;2023-05-07T04:57:14;4.63;;;4.20;;
2161;SDS011;1087;50.226;8.682;2023-05-07T04:59:39;3.83;;;3.53;;
2161;SDS011;1087;50.226;8.682;2023-05-07T05:02:05;4.30;;;3.77;;
2161;SDS011;1087;50.226;8.682;2023-05-07T05:04:30;4.77;;;4.27;;
2161;SDS011;1087;50.226;8.682;2023-05-07T05:06:56;3.90;;;3.43;;
2161;SDS011;1087;50.226;8.682;2023-05-07T05:09:21;5.33;;;3.93;;
2161;SDS011;1087;50.226;8.682;2023-05-07T05:11:47;3.90;;;3.47;;
2161;SDS011;1087;50.226;8.682;2023-05-07T05:14:13;4.80;;;3.83;;
2161;SDS011;1087;50.226;8.682;2023-05-07T05:16:38;7.93;;;4.47;;
2161;SDS011;1087;50.226;8.682;2023-05-07T05:19:04;4.30;;;3.90;;
2161;SDS011;1087;50.226;8.682;2023-05-07T05:21:30;4.33;;;3.90;;
2161;SDS011;1087;50.226;8.682;2023-05-07T05:23:56;4.03;;;3.73;;
2161;SDS011;1087;50.226;8.682;2023-05-07T05:26:22;4.27;;;3.87;;
2161;SDS011;1087;50.226;8.682;2023-05-07T05:28:47;4.40;;;4.00;;
2161;SDS011;1087;50.226;8.682;2023-05-07T05:31:13;4.27;;;3.80;;
2161;SDS011;1087;50.226;8.682;2023-05-07T05:33:39;3.93;;;3.63;;
2161;SDS011;1087;50.226;8.682;2023-05-07T05:36:05;3.90;;;3.27;;
2161;SDS011;1087;50.226;8.682;2023-05-07T05:38:31;4.93;;;3.43;;
2161;SDS011;1087;50.226;8.682;2023-05-07T05:40:56;4.10;;;3.70;;
2161;SDS011;1087;50.226;8.682;2023-05-07T05:43:22;4.37;;;4.03;;
2161;SDS011;1087;50.226;8.682;2023-05-07T05:45:48;4.30;;;3.90;;
2161;SDS011;1087;50.226;8.682;2023-05-07T05:48:14;4.07;;;3.77;;
2161;SDS011;1087;50.226;8.682;2023-05-07T05:50:39;3.90;;;3.30;;
2161;SDS011;1087;50.226;8.682;2023-05-07T05:53:07;3.87;;;3.57;;
2161;SDS011;1087;50.226;8.682;2023-05-07T05:55:32;3.77;;;3.47;;
2161;SDS011;1087;50.226;8.682;2023-05-07T05:58:01;3.80;;;3.50;;
2161;SDS011;1087;50.226;8.682;2023-05-07T06:00:27;3.90;;;3.60;;
2161;SDS011;1087;50.226;8.682;2023-05-07T06:02:53;4.50;;;3.63;;
2161;SDS011;1087;50.226;8.682;2023-05-07T06:05:19;3.40;;;3.10;;
2161;SDS011;1087;50.226;8.682;2023-05-07T06:07:44;3.73;;;3.50;;
2161;SDS011;1087;50.226;8.682;2023-05-07T06:10:10;3.80;;;3.50;;
2161;SDS011;1087;50.226;8.682;2023-05-07T06:12:35;3.70;;;3.40;;
2161;SDS011;1087;50.226;8.682;2023-05-07T06:15:01;3.90;;;3.60;;
2161;SDS011;1087;50.226;8.682;2023-05-07T06:17:26;3.90;;;3.60;;
2161;SDS011;1087;50.226;8.682;2023-05-07T06:19:52;3.60;;;3.30;;
2161;SDS011;1087;50.226;8.682;2023-05-07T06:22:18;5.30;;;3.93;;
2161;SDS011;1087;50.226;8.682;2023-05-07T06:24:43;4.33;;;4.03;;
2161;SDS011;1087;50.226;8.682;2023-05-07T06:27:09;4.20;;;3.13;;
2161;SDS011;1087;50.226;8.682;2023-05-07T06:29:34;4.60;;;4.30;;
2161;SDS011;1087;50.226;8.682;2023-05-07T06:32:07;4.33;;;3.97;;
2161;SDS011;1087;50.226;8.682;2023-05-07T06:34:33;3.97;;;3.67;;
2161;SDS011;1087;50.226;8.682;2023-05-07T06:36:59;4.10;;;3.80;;
2161;SDS011;1087;50.226;8.682;2023-05-07T06:39:24;4.30;;;4.00;;
2161;SDS011;1087;50.226;8.682;2023-05-07T06:41:50;4.40;;;4.00;;
2161;SDS011;1087;50.226;8.682;2023-05-07T06:44:15;4.27;;;3.73;;
2161;SDS011;1087;50.226;8.682;2023-05-07T06:46:41;4.23;;;3.90;;
2161;SDS011;1087;50.226;8.682;2023-05-07T06:49:07;5.37;;;4.93;;
2161;SDS011;1087;50.226;8.682;2023-05-07T06:51:33;4.43;;;4.10;;
2161;SDS011;1087;50.226;8.682;2023-05-07T06:53:58;4.00;;;3.70;;
2161;SDS011;1087;50.226;8.682;2023-05-07T06:56:24;4.97;;;4.47;;
2161;SDS011;1087;50.226;8.682;2023-05-07T06:58:50;5.70;;;4.57;;
2161;SDS011;1087;50.226;8.682;2023-05-07T07:01:15;4.77;;;4.37;;
2161;SDS011;1087;50.226;8.682;2023-05-07T07:03:41;7.20;;;5.67;;
2161;SDS011;1087;50.226;8.682;2023-05-07T07:06:06;5.10;;;4.57;;
2161;SDS011;1087;50.226;8.682;2023-05-07T07:08:32;5.00;;;4.60;;
2161;SDS011;1087;50.226;8.682;2023-05-07T07:10:58;4.60;;;4.20;;
2161;SDS011;1087;50.226;8.682;2023-05-07T07:13:23;5.93;;;5.33;;
2161;SDS011;1087;50.226;8.682;2023-05-07T07:15:49;5.17;;;4.67;;
2161;SDS011;1087;50.226;8.682;2023-05-07T07:18:14;5.50;;;5.10;;
2161;SDS011;1087;50.226;8.682;2023-05-07T07:20:41;4.60;;;4.30;;
2161;SDS011;1087;50.226;8.682;2023-05-07T07:23:09;4.73;;;4.33;;
2161;SDS011;1087;50.226;8.682;2023-05-07T07:25:35;5.67;;;5.03;;
2161;SDS011;1087;50.226;8.682;2023-05-07T07:28:00;6.40;;;5.20;;
2161;SDS011;1087;50.226;8.682;2023-05-07T07:30:26;5.17;;;4.77;;
2161;SDS011;1087;50.226;8.682;2023-05-07T07:32:52;5.20;;;4.80;;
2161;SDS011;1087;50.226;8.682;2023-05-07T07:35:17;6.70;;;5.67;;
2161;SDS011;1087;50.226;8.682;2023-05-07T07:37:43;6.23;;;5.83;;
2161;SDS011;1087;50.226;8.682;2023-05-07T07:40:08;5.43;;;5.03;;
2161;SDS011;1087;50.226;8.682;2023-05-07T07:42:34;6.73;;;6.30;;
2161;SDS011;1087;50.226;8.682;2023-05-07T07:45:00;6.07;;;5.57;;
2161;SDS011;1087;50.226;8.682;2023-05-07T07:47:26;5.50;;;5.10;;
2161;SDS011;1087;50.226;8.682;2023-05-07T07:49:51;5.53;;;5.03;;
2161;SDS011;1087;50.226;8.682;2023-05-07T07:52:17;6.03;;;5.37;;
2161;SDS011;1087;50.226;8.682;2023-05-07T07:54:44;4.80;;;4.40;;
2161;SDS011;1087;50.226;8.682;2023-05-07T07:57:09;4.93;;;4.53;;
2161;SDS011;1087;50.226;8.682;2023-05-07T07:59:35;5.80;;;5.40;;
2161;SDS011;1087;50.226;8.682;2023-05-07T08:02:00;5.70;;;5.20;;
2161;SDS011;1087;50.226;8.682;2023-05-07T08:04:26;5.70;;;5.20;;
2161;SDS011;1087;50.226;8.682;2023-05-07T08:06:51;6.00;;;5.50;;
2161;SDS011;1087;50.226;8.682;2023-05-07T08:09:19;6.20;;;5.70;;
2161;SDS011;1087;50.226;8.682;2023-05-07T08:11:45;5.40;;;4.87;;
2161;SDS011;1087;50.226;8.682;2023-05-07T08:14:11;5.33;;;4.83;;
2161;SDS011;1087;50.226;8.682;2023-05-07T08:16:36;6.60;;;6.00;;
2161;SDS011;1087;50.226;8.682;2023-05-07T08:19:02;5.70;;;5.30;;
2161;SDS011;1087;50.226;8.682;2023-05-07T08:21:28;6.03;;;5.63;;
2161;SDS011;1087;50.226;8.682;2023-05-07T08:23:54;5.80;;;5.30;;
2161;SDS011;1087;50.226;8.682;2023-05-07T08:26:19;6.80;;;5.80;;
2161;SDS011;1087;50.226;8.682;2023-05-07T08:28:45;6.07;;;5.57;;
2161;SDS011;1087;50.226;8.682;2023-05-07T08:31:10;4.97;;;4.57;;
2161;SDS011;1087;50.226;8.682;2023-05-07T08:33:36;5.50;;;5.10;;
2161;SDS011;1087;50.226;8.682;2023-05-07T08:36:03;6.60;;;6.10;;
2161;SDS011;1087;50.226;8.682;2023-05-07T08:38:29;5.63;;;5.23;;
2161;SDS011;1087;50.226;8.682;2023-05-07T08:40:55;5.60;;;5.20;;
2161;SDS011;1087;50.226;8.682;2023-05-07T08:43:20;5.90;;;5.40;;
2161;SDS011;1087;50.226;8.682;2023-05-07T08:45:51;6.10;;;5.60;;
2161;SDS011;1087;50.226;8.682;2023-05-07T08:48:24;5.87;;;5.47;;
2161;SDS011;1087;50.226;8.682;2023-05-07T08:50:51;6.63;;;6.13;;
2161;SDS011;1087;50.226;8.682;2023-05-07T08:53:17;5.60;;;5.10;;
2161;SDS011;1087;50.226;8.682;2023-05-07T08:55:43;6.40;;;5.90;;
2161;SDS011;1087;50.226;8.682;2023-05-07T08:58:08;5.00;;;4.60;;
2161;SDS011;1087;50.226;8.682;2023-05-07T09:00:35;6.00;;;5.60;;
2161;SDS011;1087;50.226;8.682;2023-05-07T09:03:01;6.00;;;5.40;;
2161;SDS011;1087;50.226;8.682;2023-05-07T09:05:27;6.03;;;5.53;;
2161;SDS011;1087;50.226;8.682;2023-05-07T09:07:53;5.80;;;5.30;;
2161;SDS011;1087;50.226;8.682;2023-05-07T09:10:20;5.40;;;5.00;;
2161;SDS011;1087;50.226;8.682;2023-05-07T09:12:46;6.80;;;5.90;;
2161;SDS011;1087;50.226;8.682;2023-05-07T09:15:12;7.50;;;6.90;;
2161;SDS011;1087;50.226;8.682;2023-05-07T09:17:38;5.90;;;5.37;;
2161;SDS011;1087;50.226;8.682;2023-05-07T09:20:06;5.33;;;4.83;;
2161;SDS011;1087;50.226;8.682;2023-05-07T09:22:32;5.53;;;5.03;;
2161;SDS011;1087;50.226;8.682;2023-05-07T09:24:58;5.70;;;5.20;;
2161;SDS011;1087;50.226;8.682;2023-05-07T09:27:24;6.50;;;6.00;;
2161;SDS011;1087;50.226;8.682;2023-05-07T09:29:50;5.40;;;4.97;;
2161;SDS011;1087;50.226;8.682;2023-05-07T09:32:16;5.37;;;4.97;;
2161;SDS011;1087;50.226;8.682;2023-05-07T09:34:42;6.30;;;5.77;;
2161;SDS011;1087;50.226;8.682;2023-05-07T09:37:07;6.37;;;5.87;;
2161;SDS011;1087;50.226;8.682;2023-05-07T09:39:42;6.70;;;6.10;;
2161;SDS011;1087;50.226;8.682;2023-05-07T09:42:09;6.33;;;5.83;;
2161;SDS011;1087;50.226;8.682;2023-05-07T09:44:36;6.00;;;5.50;;
2161;SDS011;1087;50.226;8.682;2023-05-07T09:47:04;6.33;;;5.93;;
2161;SDS011;1087;50.226;8.682;2023-05-07T09:49:30;5.97;;;5.47;;
2161;SDS011;1087;50.226;8.682;2023-05-07T09:52:02;5.70;;;5.30;;
2161;SDS011;1087;50.226;8.682;2023-05-07T09:54:31;6.93;;;6.43;;
2161;SDS011;1087;50.226;8.682;2023-05-07T09:56:58;6.50;;;6.00;;
2161;SDS011;1087;50.226;8.682;2023-05-07T09:59:27;7.53;;;6.27;;
2161;SDS011;1087;50.226;8.682;2023-05-07T10:01:55;6.67;;;6.03;;
2161;SDS011;1087;50.226;8.682;2023-05-07T10:04:23;6.47;;;5.97;;
2161;SDS011;1087;50.226;8.682;2023-05-07T10:06:50;6.73;;;6.13;;
2161;SDS011;1087;50.226;8.682;2023-05-07T10:09:16;5.53;;;5.13;;
2161;SDS011;1087;50.226;8.682;2023-05-07T10:11:43;5.57;;;5.17;;
2161;SDS011;1087;50.226;8.682;2023-05-07T10:14:09;6.07;;;5.67;;
2161;SDS011;1087;50.226;8.682;2023-05-07T10:16:36;6.10;;;5.70;;
2161;SDS011;1087;50.226;8.682;2023-05-07T10:19:03;5.90;;;5.50;;
2161;SDS011;1087;50.226;8.682;2023-05-07T10:21:30;6.70;;;6.10;;
2161;SDS011;1087;50.226;8.682;2023-05-07T10:24:03;6.00;;;5.60;;
2161;SDS011;1087;50.226;8.682;2023-05-07T10:26:44;6.43;;;5.83;;
2161;SDS011;1087;50.226;8.682;2023-05-07T10:29:14;6.53;;;6.03;;
2161;SDS011;1087;50.226;8.682;2023-05-07T10:34:32;5.70;;;5.30;;
2161;SDS011;1087;50.226;8.682;2023-05-07T10:37:02;6.53;;;5.93;;
2161;SDS011;1087;50.226;8.682;2023-05-07T10:39:29;6.13;;;5.63;;
2161;SDS011;1087;50.226;8.682;2023-05-07T10:41:55;5.13;;;4.73;;
2161;SDS011;1087;50.226;8.682;2023-05-07T10:44:29;5.63;;;5.00;;
2161;SDS011;1087;50.226;8.682;2023-05-07T10:47:09;5.80;;;5.40;;
2161;SDS011;1087;50.226;8.682;2023-05-07T10:52:14;7.70;;;7.00;;
2161;SDS011;1087;50.226;8.682;2023-05-07T10:54:43;6.30;;;5.80;;
2161;SDS011;1087;50.226;8.682;2023-05-07T10:59:57;6.23;;;5.83;;
2161;SDS011;1087;50.226;8.682;2023-05-07T11:02:23;6.33;;;5.93;;
2161;SDS011;1087;50.226;8.682;2023-05-07T11:05:19;5.63;;;5.23;;
2161;SDS011;1087;50.226;8.682;2023-05-07T11:07:53;6.37;;;5.73;;
2161;SDS011;1087;50.226;8.682;2023-05-07T11:10:23;5.97;;;5.47;;
2161;SDS011;1087;50.226;8.682;2023-05-07T11:13:08;6.50;;;6.00;;
2161;SDS011;1087;50.226;8.682;2023-05-07T11:15:38;5.10;;;4.70;;
2161;SDS011;1087;50.226;8.682;2023-05-07T11:18:07;4.93;;;4.57;;
2161;SDS011;1087;50.226;8.682;2023-05-07T11:26:00;5.80;;;5.30;;
2161;SDS011;1087;50.226;8.682;2023-05-07T11:28:27;5.33;;;4.93;;
2161;SDS011;1087;50.226;8.682;2023-05-07T11:30:53;4.83;;;4.40;;
2161;SDS011;1087;50.226;8.682;2023-05-07T11:33:19;5.27;;;4.77;;
2161;SDS011;1087;50.226;8.682;2023-05-07T11:35:45;4.53;;;4.23;;
2161;SDS011;1087;50.226;8.682;2023-05-07T11:38:11;4.97;;;4.50;;
2161;SDS011;1087;50.226;8.682;2023-05-07T11:43:15;4.80;;;4.50;;
2161;SDS011;1087;50.226;8.682;2023-05-07T11:45:41;5.00;;;4.50;;
2161;SDS011;1087;50.226;8.682;2023-05-07T11:48:06;5.30;;;4.90;;
2161;SDS011;1087;50.226;8.682;2023-05-07T11:50:32;4.70;;;4.30;;
2161;SDS011;1087;50.226;8.682;2023-05-07T11:52:58;4.93;;;4.53;;
2161;SDS011;1087;50.226;8.682;2023-05-07T11:55:24;4.20;;;3.80;;
2161;SDS011;1087;50.226;8.682;2023-05-07T11:57:50;3.60;;;3.40;;
2161;SDS011;1087;50.226;8.682;2023-05-07T12:00:16;4.57;;;4.17;;
2161;SDS011;1087;50.226;8.682;2023-05-07T12:02:42;4.73;;;4.37;;
2161;SDS011;1087;50.226;8.682;2023-05-07T12:05:09;4.43;;;4.17;;
2161;SDS011;1087;50.226;8.682;2023-05-07T12:07:35;4.93;;;4.53;;
2161;SDS011;1087;50.226;8.682;2023-05-07T12:10:07;5.70;;;5.00;;
2161;SDS011;1087;50.226;8.682;2023-05-07T12:12:45;5.10;;;4.53;;
2161;SDS011;1087;50.226;8.682;2023-05-07T12:15:13;4.13;;;3.80;;
2161;SDS011;1087;50.226;8.682;2023-05-07T12:17:47;5.40;;;4.43;;
2161;SDS011;1087;50.226;8.682;2023-05-07T12:20:13;5.00;;;4.60;;
2161;SDS011;1087;50.226;8.682;2023-05-07T12:22:39;6.40;;;5.97;;
2161;SDS011;1087;50.226;8.682;2023-05-07T12:25:06;6.30;;;5.80;;
2161;SDS011;1087;50.226;8.682;2023-05-07T12:27:31;6.00;;;5.40;;
2161;SDS011;1087;50.226;8.682;2023-05-07T12:29:57;6.00;;;5.50;;
2161;SDS011;1087;50.226;8.682;2023-05-07T12:32:24;4.67;;;4.33;;
2161;SDS011;1087;50.226;8.682;2023-05-07T12:34:50;5.83;;;5.40;;
2161;SDS011;1087;50.226;8.682;2023-05-07T12:37:16;5.00;;;4.70;;
2161;SDS011;1087;50.226;8.682;2023-05-07T12:39:47;4.93;;;4.57;;
2161;SDS011;1087;50.226;8.682;2023-05-07T12:42:19;5.30;;;4.80;;
2161;SDS011;1087;50.226;8.682;2023-05-07T12:44:50;5.13;;;4.73;;
2161;SDS011;1087;50.226;8.682;2023-05-07T12:47:17;5.70;;;5.20;;
2161;SDS011;1087;50.226;8.682;2023-05-07T12:49:42;5.50;;;4.90;;
2161;SDS011;1087;50.226;8.682;2023-05-07T12:52:10;5.03;;;4.63;;
2161;SDS011;1087;50.226;8.682;2023-05-07T12:54:37;4.80;;;4.40;;
2161;SDS011;1087;50.226;8.682;2023-05-07T12:57:07;6.03;;;5.53;;
2161;SDS011;1087;50.226;8.682;2023-05-07T12:59:37;5.60;;;5.20;;
2161;SDS011;1087;50.226;8.682;2023-05-07T13:02:06;5.13;;;4.63;;
2161;SDS011;1087;50.226;8.682;2023-05-07T13:04:32;4.67;;;4.37;;
2161;SDS011;1087;50.226;8.682;2023-05-07T13:06:58;4.40;;;4.10;;
2161;SDS011;1087;50.226;8.682;2023-05-07T13:09:25;4.43;;;4.13;;
2161;SDS011;1087;50.226;8.682;2023-05-07T13:11:50;5.07;;;4.57;;
2161;SDS011;1087;50.226;8.682;2023-05-07T13:14:16;4.70;;;4.40;;
2161;SDS011;1087;50.226;8.682;2023-05-07T13:16:41;4.90;;;4.43;;
2161;SDS011;1087;50.226;8.682;2023-05-07T13:19:07;5.53;;;5.13;;
2161;SDS011;1087;50.226;8.682;2023-05-07T13:21:32;4.70;;;4.23;;
2161;SDS011;1087;50.226;8.682;2023-05-07T13:23:58;4.63;;;4.23;;
2161;SDS011;1087;50.226;8.682;2023-05-07T13:26:24;4.63;;;4.33;;
2161;SDS011;1087;50.226;8.682;2023-05-07T13:28:50;4.97;;;4.57;;
2161;SDS011;1087;50.226;8.682;2023-05-07T13:31:16;4.20;;;3.90;;
2161;SDS011;1087;50.226;8.682;2023-05-07T13:33:42;4.90;;;4.50;;
2161;SDS011;1087;50.226;8.682;2023-05-07T13:36:08;4.57;;;4.27;;
2161;SDS011;1087;50.226;8.682;2023-05-07T13:38:34;4.37;;;3.97;;
2161;SDS011;1087;50.226;8.682;2023-05-07T13:41:00;4.40;;;4.10;;
2161;SDS011;1087;50.226;8.682;2023-05-07T13:43:25;4.30;;;4.00;;
2161;SDS011;1087;50.226;8.682;2023-05-07T13:45:51;3.97;;;3.67;;
2161;SDS011;1087;50.226;8.682;2023-05-07T13:48:16;4.07;;;3.77;;
2161;SDS011;1087;50.226;8.682;2023-05-07T13:50:42;3.97;;;3.67;;
2161;SDS011;1087;50.226;8.682;2023-05-07T13:53:07;4.60;;;4.30;;
2161;SDS011;1087;50.226;8.682;2023-05-07T13:55:33;4.43;;;4.00;;
2161;SDS011;1087;50.226;8.682;2023-05-07T13:57:59;4.73;;;4.23;;
2161;SDS011;1087;50.226;8.682;2023-05-07T14:00:26;4.67;;;4.37;;
2161;SDS011;1087;50.226;8.682;2023-05-07T14:02:53;4.60;;;4.23;;
2161;SDS011;1087;50.226;8.682;2023-05-07T14:05:19;5.03;;;4.47;;
2161;SDS011;1087;50.226;8.682;2023-05-07T14:07:45;4.93;;;4.43;;
2161;SDS011;1087;50.226;8.682;2023-05-07T14:10:11;4.33;;;4.00;;
2161;SDS011;1087;50.226;8.682;2023-05-07T14:12:38;4.67;;;4.17;;
2161;SDS011;1087;50.226;8.682;2023-05-07T14:15:03;4.40;;;4.10;;
2161;SDS011;1087;50.226;8.682;2023-05-07T14:17:29;4.57;;;4.27;;
2161;SDS011;1087;50.226;8.682;2023-05-07T14:19:55;5.20;;;4.80;;
2161;SDS011;1087;50.226;8.682;2023-05-07T14:22:21;4.37;;;4.07;;
2161;SDS011;1087;50.226;8.682;2023-05-07T14:24:47;4.40;;;4.10;;
2161;SDS011;1087;50.226;8.682;2023-05-07T14:27:13;4.03;;;3.73;;
2161;SDS011;1087;50.226;8.682;2023-05-07T14:29:39;4.70;;;4.30;;
2161;SDS011;1087;50.226;8.682;2023-05-07T14:32:05;8.13;;;7.33;;
2161;SDS011;1087;50.226;8.682;2023-05-07T14:34:31;14.77;;;13.20;;
2161;SDS011;1087;50.226;8.682;2023-05-07T14:36:57;4.97;;;4.57;;
2161;SDS011;1087;50.226;8.682;2023-05-07T14:39:23;5.23;;;4.73;;
2161;SDS011;1087;50.226;8.682;2023-05-07T14:41:48;4.80;;;4.40;;
2161;SDS011;1087;50.226;8.682;2023-05-07T14:44:14;4.83;;;4.50;;
2161;SDS011;1087;50.226;8.682;2023-05-07T14:46:39;4.20;;;3.90;;
2161;SDS011;1087;50.226;8.682;2023-05-07T14:49:05;4.50;;;4.13;;
2161;SDS011;1087;50.226;8.682;2023-05-07T14:51:31;4.83;;;4.43;;
2161;SDS011;1087;50.226;8.682;2023-05-07T14:53:57;4.10;;;3.80;;
2161;SDS011;1087;50.226;8.682;2023-05-07T14:56:23;3.60;;;3.30;;
2161;SDS011;1087;50.226;8.682;2023-05-07T14:58:49;3.83;;;3.53;;
2161;SDS011;1087;50.226;8.682;2023-05-07T15:01:15;4.03;;;3.73;;
2161;SDS011;1087;50.226;8.682;2023-05-07T15:03:40;3.23;;;3.03;;
2161;SDS011;1087;50.226;8.682;2023-05-07T15:06:06;3.73;;;3.43;;
2161;SDS011;1087;50.226;8.682;2023-05-07T15:08:31;4.00;;;3.70;;
2161;SDS011;1087;50.226;8.682;2023-05-07T15:10:57;3.70;;;3.47;;
2161;SDS011;1087;50.226;8.682;2023-05-07T15:13:22;3.93;;;3.63;;
2161;SDS011;1087;50.226;8.682;2023-05-07T15:15:48;3.57;;;3.27;;
2161;SDS011;1087;50.226;8.682;2023-05-07T15:18:14;3.90;;;3.60;;
2161;SDS011;1087;50.226;8.682;2023-05-07T15:20:40;4.37;;;3.97;;
2161;SDS011;1087;50.226;8.682;2023-05-07T15:23:07;3.77;;;3.47;;
2161;SDS011;1087;50.226;8.682;2023-05-07T15:25:35;3.17;;;2.97;;
2161;SDS011;1087;50.226;8.682;2023-05-07T15:28:01;3.00;;;2.80;;